sensor_id;sensor_type;location;lat;lon;timestamp;temperature;humidity
4964;DHT22;2497;47.410;9.740;2022-12-18T00:00:48;-4.90;99.90
4964;DHT22;2497;47.410;9.740;2022-12-18T00:03:16;-4.90;99.90
4964;DHT22;2497;47.410;9.740;2022-12-18T00:05:47;-4.90;99.90
4964;DHT22;2497;47.410;9.740;2022-12-18T00:08:14;-4.90;99.90
4964;DHT22;2497;47.410;9.740;2022-12-18T00:10:43;-5.00;99.90
4964;DHT22;2497;47.410;9.740;2022-12-18T00:13:12;-4.90;99.90
4964;DHT22;2497;47.410;9.740;2022-12-18T00:15:39;-5.00;99.90
4964;DHT22;2497;47.410;9.740;2022-12-18T00:18:07;-5.00;99.90
4964;DHT22;2497;47.410;9.740;2022-12-18T00:20:36;-5.00;99.90
4964;DHT22;2497;47.410;9.740;2022-12-18T00:23:04;-5.00;99.90
4964;DHT22;2497;47.410;9.740;2022-12-18T00:25:32;-5.10;99.90
4964;DHT22;2497;47.410;9.740;2022-12-18T00:28:01;-5.10;99.90
4964;DHT22;2497;47.410;9.740;2022-12-18T00:30:29;-5.10;99.90
4964;DHT22;2497;47.410;9.740;2022-12-18T00:32:57;-5.10;99.90
4964;DHT22;2497;47.410;9.740;2022-12-18T00:35:25;-5.20;99.90
4964;DHT22;2497;47.410;9.740;2022-12-18T00:37:52;-5.20;99.90
4964;DHT22;2497;47.410;9.740;2022-12-18T00:40:19;-5.20;99.90
4964;DHT22;2497;47.410;9.740;2022-12-18T00:42:47;-5.10;99.90
4964;DHT22;2497;47.410;9.740;2022-12-18T00:45:24;-5.10;99.90
4964;DHT22;2497;47.410;9.740;2022-12-18T00:47:52;-5.10;99.90
4964;DHT22;2497;47.410;9.740;2022-12-18T00:50:19;-5.10;99.90
4964;DHT22;2497;47.410;9.740;2022-12-18T00:52:50;-5.20;99.90
4964;DHT22;2497;47.410;9.740;2022-12-18T00:55:18;-5.30;99.90
4964;DHT22;2497;47.410;9.740;2022-12-18T00:57:45;-5.30;99.90
4964;DHT22;2497;47.410;9.740;2022-12-18T01:00:14;-5.30;99.90
4964;DHT22;2497;47.410;9.740;2022-12-18T01:02:44;-5.40;99.90
4964;DHT22;2497;47.410;9.740;2022-12-18T01:05:12;-5.40;99.90
4964;DHT22;2497;47.410;9.740;2022-12-18T01:07:40;-5.40;99.90
4964;DHT22;2497;47.410;9.740;2022-12-18T01:10:10;-5.50;99.90
4964;DHT22;2497;47.410;9.740;2022-12-18T01:12:38;-5.50;99.90
4964;DHT22;2497;47.410;9.740;2022-12-18T01:15:06;-5.50;99.90
4964;DHT22;2497;47.410;9.740;2022-12-18T01:17:34;-5.40;99.90
4964;DHT22;2497;47.410;9.740;2022-12-18T01:20:05;-5.40;99.90
4964;DHT22;2497;47.410;9.740;2022-12-18T01:22:32;-5.40;99.90
4964;DHT22;2497;47.410;9.740;2022-12-18T01:24:59;-5.50;99.90
4964;DHT22;2497;47.410;9.740;2022-12-18T01:27:26;-5.50;99.90
4964;DHT22;2497;47.410;9.740;2022-12-18T01:29:54;-5.40;99.90
4964;DHT22;2497;47.410;9.740;2022-12-18T01:32:22;-5.30;99.90
4964;DHT22;2497;47.410;9.740;2022-12-18T01:34:49;-5.30;99.90
4964;DHT22;2497;47.410;9.740;2022-12-18T01:37:18;-5.30;99.90
4964;DHT22;2497;47.410;9.740;2022-12-18T01:39:45;-5.30;99.90
4964;DHT22;2497;47.410;9.740;2022-12-18T01:42:14;-5.30;99.90
4964;DHT22;2497;47.410;9.740;2022-12-18T01:44:57;-5.30;99.90
4964;DHT22;2497;47.410;9.740;2022-12-18T01:47:30;-5.20;99.90
4964;DHT22;2497;47.410;9.740;2022-12-18T01:50:02;-5.10;99.90
4964;DHT22;2497;47.410;9.740;2022-12-18T01:52:33;-5.00;99.90
4964;DHT22;2497;47.410;9.740;2022-12-18T01:55:02;-4.90;99.90
4964;DHT22;2497;47.410;9.740;2022-12-18T01:57:30;-4.90;99.90
4964;DHT22;2497;47.410;9.740;2022-12-18T02:00:01;-4.80;99.90
4964;DHT22;2497;47.410;9.740;2022-12-18T02:02:30;-4.70;99.90
4964;DHT22;2497;47.410;9.740;2022-12-18T02:04:58;-4.70;99.90
4964;DHT22;2497;47.410;9.740;2022-12-18T02:07:35;-4.70;99.90
4964;DHT22;2497;47.410;9.740;2022-12-18T02:10:09;-4.70;99.90
4964;DHT22;2497;47.410;9.740;2022-12-18T02:12:42;-4.70;99.90
4964;DHT22;2497;47.410;9.740;2022-12-18T02:15:16;-4.80;99.90
4964;DHT22;2497;47.410;9.740;2022-12-18T02:17:50;-4.80;99.90
4964;DHT22;2497;47.410;9.740;2022-12-18T02:20:23;-4.90;99.90
4964;DHT22;2497;47.410;9.740;2022-12-18T02:23:09;-4.90;99.90
4964;DHT22;2497;47.410;9.740;2022-12-18T02:26:02;-4.90;99.90
4964;DHT22;2497;47.410;9.740;2022-12-18T02:28:37;-4.80;99.90
4964;DHT22;2497;47.410;9.740;2022-12-18T02:31:11;-4.80;99.90
4964;DHT22;2497;47.410;9.740;2022-12-18T02:33:43;-4.80;99.90
4964;DHT22;2497;47.410;9.740;2022-12-18T02:36:13;-4.70;99.90
4964;DHT22;2497;47.410;9.740;2022-12-18T02:38:41;-4.70;99.90
4964;DHT22;2497;47.410;9.740;2022-12-18T02:41:12;-4.60;99.90
4964;DHT22;2497;47.410;9.740;2022-12-18T02:43:40;-4.60;99.90
4964;DHT22;2497;47.410;9.740;2022-12-18T02:46:27;-4.50;99.90
4964;DHT22;2497;47.410;9.740;2022-12-18T02:49:00;-4.40;99.90
4964;DHT22;2497;47.410;9.740;2022-12-18T02:51:31;-4.30;99.90
4964;DHT22;2497;47.410;9.740;2022-12-18T02:54:05;-4.20;99.90
4964;DHT22;2497;47.410;9.740;2022-12-18T02:56:40;-4.20;99.90
4964;DHT22;2497;47.410;9.740;2022-12-18T02:59:13;-4.10;99.90
4964;DHT22;2497;47.410;9.740;2022-12-18T03:01:47;-4.10;99.90
4964;DHT22;2497;47.410;9.740;2022-12-18T03:04:22;-4.00;99.90
4964;DHT22;2497;47.410;9.740;2022-12-18T03:06:55;-4.00;99.90
4964;DHT22;2497;47.410;9.740;2022-12-18T03:09:29;-3.90;99.90
4964;DHT22;2497;47.410;9.740;2022-12-18T03:12:06;-3.90;99.90
4964;DHT22;2497;47.410;9.740;2022-12-18T03:14:55;-3.80;99.90
4964;DHT22;2497;47.410;9.740;2022-12-18T03:17:27;-3.70;99.90
4964;DHT22;2497;47.410;9.740;2022-12-18T03:19:57;-3.70;99.90
4964;DHT22;2497;47.410;9.740;2022-12-18T03:22:27;-3.70;99.90
4964;DHT22;2497;47.410;9.740;2022-12-18T03:24:56;-3.70;99.90
4964;DHT22;2497;47.410;9.740;2022-12-18T03:27:26;-3.70;99.90
4964;DHT22;2497;47.410;9.740;2022-12-18T03:30:00;-3.80;99.90
4964;DHT22;2497;47.410;9.740;2022-12-18T03:32:38;-3.80;99.90
4964;DHT22;2497;47.410;9.740;2022-12-18T03:35:08;-3.70;99.90
4964;DHT22;2497;47.410;9.740;2022-12-18T03:37:36;-3.70;99.90
4964;DHT22;2497;47.410;9.740;2022-12-18T03:40:05;-3.70;99.90
4964;DHT22;2497;47.410;9.740;2022-12-18T03:42:39;-3.60;99.90
4964;DHT22;2497;47.410;9.740;2022-12-18T03:45:12;-3.70;99.90
4964;DHT22;2497;47.410;9.740;2022-12-18T03:47:50;-3.80;99.90
4964;DHT22;2497;47.410;9.740;2022-12-18T03:50:23;-3.80;99.90
4964;DHT22;2497;47.410;9.740;2022-12-18T03:52:59;-3.80;99.90
4964;DHT22;2497;47.410;9.740;2022-12-18T03:55:31;-3.70;99.90
4964;DHT22;2497;47.410;9.740;2022-12-18T03:58:02;-3.80;99.90
4964;DHT22;2497;47.410;9.740;2022-12-18T04:00:31;-3.80;99.90
4964;DHT22;2497;47.410;9.740;2022-12-18T04:03:00;-3.80;99.90
4964;DHT22;2497;47.410;9.740;2022-12-18T04:05:29;-3.70;99.90
4964;DHT22;2497;47.410;9.740;2022-12-18T04:07:57;-3.70;99.90
4964;DHT22;2497;47.410;9.740;2022-12-18T04:10:25;-3.70;99.90
4964;DHT22;2497;47.410;9.740;2022-12-18T04:12:56;-3.80;99.90
4964;DHT22;2497;47.410;9.740;2022-12-18T04:15:25;-3.80;99.90
4964;DHT22;2497;47.410;9.740;2022-12-18T04:17:52;-3.80;99.90
4964;DHT22;2497;47.410;9.740;2022-12-18T04:20:20;-3.90;99.90
4964;DHT22;2497;47.410;9.740;2022-12-18T04:22:48;-3.90;99.90
4964;DHT22;2497;47.410;9.740;2022-12-18T04:25:16;-3.80;99.90
4964;DHT22;2497;47.410;9.740;2022-12-18T04:27:44;-3.80;99.90
4964;DHT22;2497;47.410;9.740;2022-12-18T04:30:11;-3.80;99.90
4964;DHT22;2497;47.410;9.740;2022-12-18T04:32:40;-3.80;99.90
4964;DHT22;2497;47.410;9.740;2022-12-18T04:35:08;-3.90;99.90
4964;DHT22;2497;47.410;9.740;2022-12-18T04:37:36;-3.80;99.90
4964;DHT22;2497;47.410;9.740;2022-12-18T04:40:04;-3.80;99.90
4964;DHT22;2497;47.410;9.740;2022-12-18T04:42:32;-3.80;99.90
4964;DHT22;2497;47.410;9.740;2022-12-18T04:44:59;-3.80;99.90
4964;DHT22;2497;47.410;9.740;2022-12-18T04:47:27;-3.70;99.90
4964;DHT22;2497;47.410;9.740;2022-12-18T04:49:56;-3.80;99.90
4964;DHT22;2497;47.410;9.740;2022-12-18T04:52:23;-3.80;99.90
4964;DHT22;2497;47.410;9.740;2022-12-18T04:54:51;-3.70;99.90
4964;DHT22;2497;47.410;9.740;2022-12-18T04:57:18;-3.70;99.90
4964;DHT22;2497;47.410;9.740;2022-12-18T04:59:45;-3.60;99.90
4964;DHT22;2497;47.410;9.740;2022-12-18T05:02:15;-3.60;99.90
4964;DHT22;2497;47.410;9.740;2022-12-18T05:04:44;-3.60;99.90
4964;DHT22;2497;47.410;9.740;2022-12-18T05:07:13;-3.60;99.90
4964;DHT22;2497;47.410;9.740;2022-12-18T05:09:41;-3.60;99.90
4964;DHT22;2497;47.410;9.740;2022-12-18T05:12:08;-3.60;99.90
4964;DHT22;2497;47.410;9.740;2022-12-18T05:14:35;-3.60;99.90
4964;DHT22;2497;47.410;9.740;2022-12-18T05:17:03;-3.60;99.90
4964;DHT22;2497;47.410;9.740;2022-12-18T05:19:31;-3.60;99.90
4964;DHT22;2497;47.410;9.740;2022-12-18T05:21:58;-3.60;99.90
4964;DHT22;2497;47.410;9.740;2022-12-18T05:24:27;-3.60;99.90
4964;DHT22;2497;47.410;9.740;2022-12-18T05:26:54;-3.60;99.90
4964;DHT22;2497;47.410;9.740;2022-12-18T05:29:22;-3.70;99.90
4964;DHT22;2497;47.410;9.740;2022-12-18T05:31:49;-3.60;99.90
4964;DHT22;2497;47.410;9.740;2022-12-18T05:34:20;-3.70;99.90
4964;DHT22;2497;47.410;9.740;2022-12-18T05:36:47;-3.70;99.90
4964;DHT22;2497;47.410;9.740;2022-12-18T05:39:15;-3.70;99.90
4964;DHT22;2497;47.410;9.740;2022-12-18T05:41:44;-3.60;99.90
4964;DHT22;2497;47.410;9.740;2022-12-18T05:44:14;-3.70;99.90
4964;DHT22;2497;47.410;9.740;2022-12-18T05:46:42;-3.80;99.90
4964;DHT22;2497;47.410;9.740;2022-12-18T05:49:09;-3.70;99.90
4964;DHT22;2497;47.410;9.740;2022-12-18T05:51:36;-3.70;99.90
4964;DHT22;2497;47.410;9.740;2022-12-18T05:54:03;-3.80;99.90
4964;DHT22;2497;47.410;9.740;2022-12-18T05:56:30;-3.90;99.90
4964;DHT22;2497;47.410;9.740;2022-12-18T05:58:59;-4.00;99.90
4964;DHT22;2497;47.410;9.740;2022-12-18T06:01:26;-4.00;99.90
4964;DHT22;2497;47.410;9.740;2022-12-18T06:03:55;-4.00;99.90
4964;DHT22;2497;47.410;9.740;2022-12-18T06:06:24;-4.10;99.90
4964;DHT22;2497;47.410;9.740;2022-12-18T06:08:53;-4.10;99.90
4964;DHT22;2497;47.410;9.740;2022-12-18T06:11:22;-4.20;99.90
4964;DHT22;2497;47.410;9.740;2022-12-18T06:13:50;-4.10;99.90
4964;DHT22;2497;47.410;9.740;2022-12-18T06:16:20;-4.10;99.90
4964;DHT22;2497;47.410;9.740;2022-12-18T06:18:47;-4.00;99.90
4964;DHT22;2497;47.410;9.740;2022-12-18T06:21:14;-4.00;99.90
4964;DHT22;2497;47.410;9.740;2022-12-18T06:23:41;-4.00;99.90
4964;DHT22;2497;47.410;9.740;2022-12-18T06:26:11;-4.10;99.90
4964;DHT22;2497;47.410;9.740;2022-12-18T06:28:41;-4.00;99.90
4964;DHT22;2497;47.410;9.740;2022-12-18T06:31:09;-4.00;99.90
4964;DHT22;2497;47.410;9.740;2022-12-18T06:33:38;-3.90;99.90
4964;DHT22;2497;47.410;9.740;2022-12-18T06:36:07;-3.90;99.90
4964;DHT22;2497;47.410;9.740;2022-12-18T06:38:37;-3.90;99.90
4964;DHT22;2497;47.410;9.740;2022-12-18T06:41:07;-3.90;99.90
4964;DHT22;2497;47.410;9.740;2022-12-18T06:43:34;-3.90;99.90
4964;DHT22;2497;47.410;9.740;2022-12-18T06:46:03;-3.90;99.90
4964;DHT22;2497;47.410;9.740;2022-12-18T06:48:32;-4.00;99.90
4964;DHT22;2497;47.410;9.740;2022-12-18T06:51:01;-4.00;99.90
4964;DHT22;2497;47.410;9.740;2022-12-18T06:53:28;-3.90;99.90
4964;DHT22;2497;47.410;9.740;2022-12-18T06:56:00;-3.90;99.90
4964;DHT22;2497;47.410;9.740;2022-12-18T06:58:28;-3.90;99.90
4964;DHT22;2497;47.410;9.740;2022-12-18T07:00:59;-3.80;99.90
4964;DHT22;2497;47.410;9.740;2022-12-18T07:03:28;-3.80;99.90
4964;DHT22;2497;47.410;9.740;2022-12-18T07:05:55;-3.80;99.90
4964;DHT22;2497;47.410;9.740;2022-12-18T07:08:25;-3.80;99.90
4964;DHT22;2497;47.410;9.740;2022-12-18T07:10:52;-3.70;99.90
4964;DHT22;2497;47.410;9.740;2022-12-18T07:13:19;-3.70;99.90
4964;DHT22;2497;47.410;9.740;2022-12-18T07:15:47;-3.70;99.90
4964;DHT22;2497;47.410;9.740;2022-12-18T07:18:15;-3.60;99.90
4964;DHT22;2497;47.410;9.740;2022-12-18T07:20:42;-3.60;99.90
4964;DHT22;2497;47.410;9.740;2022-12-18T07:23:09;-3.60;99.90
4964;DHT22;2497;47.410;9.740;2022-12-18T07:25:38;-3.70;99.90
4964;DHT22;2497;47.410;9.740;2022-12-18T07:28:05;-3.70;99.90
4964;DHT22;2497;47.410;9.740;2022-12-18T07:30:33;-3.70;99.90
4964;DHT22;2497;47.410;9.740;2022-12-18T07:33:01;-3.70;99.90
4964;DHT22;2497;47.410;9.740;2022-12-18T07:35:28;-3.70;99.90
4964;DHT22;2497;47.410;9.740;2022-12-18T07:37:56;-3.80;99.90
4964;DHT22;2497;47.410;9.740;2022-12-18T07:40:23;-3.80;99.90
4964;DHT22;2497;47.410;9.740;2022-12-18T07:42:52;-3.70;99.90
4964;DHT22;2497;47.410;9.740;2022-12-18T07:45:20;-3.60;99.90
4964;DHT22;2497;47.410;9.740;2022-12-18T07:47:47;-3.60;99.90
4964;DHT22;2497;47.410;9.740;2022-12-18T07:50:15;-3.50;99.90
4964;DHT22;2497;47.410;9.740;2022-12-18T07:52:43;-3.50;99.90
4964;DHT22;2497;47.410;9.740;2022-12-18T07:55:10;-3.50;99.90
4964;DHT22;2497;47.410;9.740;2022-12-18T07:57:37;-3.60;99.90
4964;DHT22;2497;47.410;9.740;2022-12-18T08:00:07;-3.60;99.90
4964;DHT22;2497;47.410;9.740;2022-12-18T08:02:34;-3.60;99.90
4964;DHT22;2497;47.410;9.740;2022-12-18T08:05:01;-3.60;99.90
4964;DHT22;2497;47.410;9.740;2022-12-18T08:07:29;-3.60;99.90
4964;DHT22;2497;47.410;9.740;2022-12-18T08:09:56;-3.60;99.90
4964;DHT22;2497;47.410;9.740;2022-12-18T08:12:23;-3.60;99.90
4964;DHT22;2497;47.410;9.740;2022-12-18T08:14:51;-3.60;99.90
4964;DHT22;2497;47.410;9.740;2022-12-18T08:17:20;-3.60;99.90
4964;DHT22;2497;47.410;9.740;2022-12-18T08:19:48;-3.50;99.90
4964;DHT22;2497;47.410;9.740;2022-12-18T08:22:15;-3.50;99.90
4964;DHT22;2497;47.410;9.740;2022-12-18T08:24:43;-3.40;99.90
4964;DHT22;2497;47.410;9.740;2022-12-18T08:27:10;-3.30;99.90
4964;DHT22;2497;47.410;9.740;2022-12-18T08:29:38;-3.20;99.90
4964;DHT22;2497;47.410;9.740;2022-12-18T08:32:06;-3.20;99.90
4964;DHT22;2497;47.410;9.740;2022-12-18T08:34:35;-3.10;99.90
4964;DHT22;2497;47.410;9.740;2022-12-18T08:37:03;-3.10;99.90
4964;DHT22;2497;47.410;9.740;2022-12-18T08:39:30;-3.00;99.90
4964;DHT22;2497;47.410;9.740;2022-12-18T08:41:57;-3.00;99.90
4964;DHT22;2497;47.410;9.740;2022-12-18T08:44:40;-2.90;99.90
4964;DHT22;2497;47.410;9.740;2022-12-18T08:47:08;-3.00;99.90
4964;DHT22;2497;47.410;9.740;2022-12-18T08:49:37;-3.00;99.90
4964;DHT22;2497;47.410;9.740;2022-12-18T08:52:05;-3.00;99.90
4964;DHT22;2497;47.410;9.740;2022-12-18T08:54:32;-3.00;99.90
4964;DHT22;2497;47.410;9.740;2022-12-18T08:56:59;-3.00;99.90
4964;DHT22;2497;47.410;9.740;2022-12-18T08:59:27;-3.10;99.90
4964;DHT22;2497;47.410;9.740;2022-12-18T09:01:54;-3.00;99.90
4964;DHT22;2497;47.410;9.740;2022-12-18T09:04:22;-3.10;99.90
4964;DHT22;2497;47.410;9.740;2022-12-18T09:06:50;-3.10;99.90
4964;DHT22;2497;47.410;9.740;2022-12-18T09:09:20;-2.90;99.90
4964;DHT22;2497;47.410;9.740;2022-12-18T09:11:47;-3.00;99.90
4964;DHT22;2497;47.410;9.740;2022-12-18T09:14:15;-2.90;99.90
4964;DHT22;2497;47.410;9.740;2022-12-18T09:16:42;-2.80;99.90
4964;DHT22;2497;47.410;9.740;2022-12-18T09:19:10;-2.70;99.90
4964;DHT22;2497;47.410;9.740;2022-12-18T09:21:38;-2.70;99.90
4964;DHT22;2497;47.410;9.740;2022-12-18T09:24:12;-2.80;99.90
4964;DHT22;2497;47.410;9.740;2022-12-18T09:26:40;-2.90;99.90
4964;DHT22;2497;47.410;9.740;2022-12-18T09:29:07;-2.90;99.90
4964;DHT22;2497;47.410;9.740;2022-12-18T09:31:38;-2.80;99.90
4964;DHT22;2497;47.410;9.740;2022-12-18T09:34:05;-2.90;99.90
4964;DHT22;2497;47.410;9.740;2022-12-18T09:36:33;-3.00;99.90
4964;DHT22;2497;47.410;9.740;2022-12-18T09:39:01;-2.80;99.90
4964;DHT22;2497;47.410;9.740;2022-12-18T09:41:47;-2.70;99.90
4964;DHT22;2497;47.410;9.740;2022-12-18T09:44:23;-2.60;99.90
4964;DHT22;2497;47.410;9.740;2022-12-18T09:46:59;-2.70;99.90
4964;DHT22;2497;47.410;9.740;2022-12-18T09:49:30;-2.50;99.90
4964;DHT22;2497;47.410;9.740;2022-12-18T09:52:02;-2.30;99.90
4964;DHT22;2497;47.410;9.740;2022-12-18T09:54:33;-2.10;99.90
4964;DHT22;2497;47.410;9.740;2022-12-18T09:57:04;-1.90;99.90
4964;DHT22;2497;47.410;9.740;2022-12-18T09:59:35;-1.60;99.90
4964;DHT22;2497;47.410;9.740;2022-12-18T10:02:15;-1.60;99.90
4964;DHT22;2497;47.410;9.740;2022-12-18T10:04:43;-1.50;99.90
4964;DHT22;2497;47.410;9.740;2022-12-18T10:07:16;-1.80;99.90
4964;DHT22;2497;47.410;9.740;2022-12-18T10:09:52;-1.70;99.90
4964;DHT22;2497;47.410;9.740;2022-12-18T10:12:28;-1.60;99.90
4964;DHT22;2497;47.410;9.740;2022-12-18T10:15:04;-1.60;99.90
4964;DHT22;2497;47.410;9.740;2022-12-18T10:17:38;-1.40;99.90
4964;DHT22;2497;47.410;9.740;2022-12-18T10:20:13;-1.10;99.90
4964;DHT22;2497;47.410;9.740;2022-12-18T10:22:50;-1.00;99.90
4964;DHT22;2497;47.410;9.740;2022-12-18T10:25:23;-1.40;99.90
4964;DHT22;2497;47.410;9.740;2022-12-18T10:27:56;-1.90;99.90
4964;DHT22;2497;47.410;9.740;2022-12-18T10:30:25;-2.10;99.90
4964;DHT22;2497;47.410;9.740;2022-12-18T10:32:53;-2.20;99.90
4964;DHT22;2497;47.410;9.740;2022-12-18T10:35:24;-2.30;99.90
4964;DHT22;2497;47.410;9.740;2022-12-18T10:38:04;-2.40;99.90
4964;DHT22;2497;47.410;9.740;2022-12-18T10:40:32;-2.30;99.90
4964;DHT22;2497;47.410;9.740;2022-12-18T10:43:12;-2.10;99.90
4964;DHT22;2497;47.410;9.740;2022-12-18T10:45:40;-2.00;99.90
4964;DHT22;2497;47.410;9.740;2022-12-18T10:48:18;-1.90;99.90
4964;DHT22;2497;47.410;9.740;2022-12-18T10:50:48;-1.60;99.90
4964;DHT22;2497;47.410;9.740;2022-12-18T10:53:19;-1.30;99.90
4964;DHT22;2497;47.410;9.740;2022-12-18T10:55:47;-1.00;99.90
4964;DHT22;2497;47.410;9.740;2022-12-18T10:58:24;-0.80;99.90
4964;DHT22;2497;47.410;9.740;2022-12-18T11:01:12;-0.50;99.90
4964;DHT22;2497;47.410;9.740;2022-12-18T11:03:41;-0.60;99.90
4964;DHT22;2497;47.410;9.740;2022-12-18T11:06:10;-0.90;99.90
4964;DHT22;2497;47.410;9.740;2022-12-18T11:08:39;-0.90;99.90
4964;DHT22;2497;47.410;9.740;2022-12-18T11:11:16;-0.90;99.90
4964;DHT22;2497;47.410;9.740;2022-12-18T11:13:57;-1.10;99.90
4964;DHT22;2497;47.410;9.740;2022-12-18T11:16:26;-1.30;99.90
4964;DHT22;2497;47.410;9.740;2022-12-18T11:18:54;-1.20;99.90
4964;DHT22;2497;47.410;9.740;2022-12-18T11:21:21;-0.90;99.90
4964;DHT22;2497;47.410;9.740;2022-12-18T11:23:50;-0.80;99.90
4964;DHT22;2497;47.410;9.740;2022-12-18T11:26:18;-0.90;99.90
4964;DHT22;2497;47.410;9.740;2022-12-18T11:28:51;-0.90;99.90
4964;DHT22;2497;47.410;9.740;2022-12-18T11:31:24;-0.80;99.90
4964;DHT22;2497;47.410;9.740;2022-12-18T11:34:03;-0.70;99.90
4964;DHT22;2497;47.410;9.740;2022-12-18T11:36:36;-0.50;99.90
4964;DHT22;2497;47.410;9.740;2022-12-18T11:39:12;-0.90;99.90
4964;DHT22;2497;47.410;9.740;2022-12-18T11:41:45;-0.90;99.90
4964;DHT22;2497;47.410;9.740;2022-12-18T11:44:38;-1.00;99.90
4964;DHT22;2497;47.410;9.740;2022-12-18T11:47:11;-0.80;99.90
4964;DHT22;2497;47.410;9.740;2022-12-18T11:49:41;-0.60;99.90
4964;DHT22;2497;47.410;9.740;2022-12-18T11:52:16;-0.40;99.90
4964;DHT22;2497;47.410;9.740;2022-12-18T11:54:45;-0.70;99.90
4964;DHT22;2497;47.410;9.740;2022-12-18T11:57:18;-0.40;99.90
4964;DHT22;2497;47.410;9.740;2022-12-18T11:59:53;-0.60;99.90
4964;DHT22;2497;47.410;9.740;2022-12-18T12:02:40;-0.40;99.90
4964;DHT22;2497;47.410;9.740;2022-12-18T12:05:25;0.00;99.90
4964;DHT22;2497;47.410;9.740;2022-12-18T12:08:01;0.20;99.90
4964;DHT22;2497;47.410;9.740;2022-12-18T12:10:39;-0.30;99.90
4964;DHT22;2497;47.410;9.740;2022-12-18T12:13:34;-0.50;99.90
4964;DHT22;2497;47.410;9.740;2022-12-18T12:16:11;-0.60;99.90
4964;DHT22;2497;47.410;9.740;2022-12-18T12:18:52;-0.80;99.90
4964;DHT22;2497;47.410;9.740;2022-12-18T12:21:25;-0.70;99.90
4964;DHT22;2497;47.410;9.740;2022-12-18T12:24:00;-0.70;99.90
4964;DHT22;2497;47.410;9.740;2022-12-18T12:26:35;-0.60;99.90
4964;DHT22;2497;47.410;9.740;2022-12-18T12:29:24;-0.60;99.90
4964;DHT22;2497;47.410;9.740;2022-12-18T12:32:07;-0.40;99.90
4964;DHT22;2497;47.410;9.740;2022-12-18T12:34:41;-0.20;99.90
4964;DHT22;2497;47.410;9.740;2022-12-18T12:37:21;-0.70;99.90
4964;DHT22;2497;47.410;9.740;2022-12-18T12:39:53;-0.90;99.90
4964;DHT22;2497;47.410;9.740;2022-12-18T12:42:29;-0.80;99.90
4964;DHT22;2497;47.410;9.740;2022-12-18T12:45:20;-0.40;99.90
4964;DHT22;2497;47.410;9.740;2022-12-18T12:47:52;-0.40;99.90
4964;DHT22;2497;47.410;9.740;2022-12-18T12:50:21;-0.30;99.90
4964;DHT22;2497;47.410;9.740;2022-12-18T12:52:51;0.00;99.90
4964;DHT22;2497;47.410;9.740;2022-12-18T12:55:21;-0.10;99.90
4964;DHT22;2497;47.410;9.740;2022-12-18T12:57:56;-0.20;99.90
4964;DHT22;2497;47.410;9.740;2022-12-18T13:00:27;-0.20;99.90
4964;DHT22;2497;47.410;9.740;2022-12-18T13:03:07;-0.60;99.90
4964;DHT22;2497;47.410;9.740;2022-12-18T13:05:41;-0.70;99.90
4964;DHT22;2497;47.410;9.740;2022-12-18T13:08:22;-0.90;99.90
4964;DHT22;2497;47.410;9.740;2022-12-18T13:10:50;-0.90;99.90
4964;DHT22;2497;47.410;9.740;2022-12-18T13:13:48;-0.90;99.90
4964;DHT22;2497;47.410;9.740;2022-12-18T13:16:18;-0.90;99.90
4964;DHT22;2497;47.410;9.740;2022-12-18T13:18:50;-1.00;99.90
4964;DHT22;2497;47.410;9.740;2022-12-18T13:21:28;-1.00;99.90
4964;DHT22;2497;47.410;9.740;2022-12-18T13:23:56;-1.10;99.90
4964;DHT22;2497;47.410;9.740;2022-12-18T13:26:31;-1.00;99.90
4964;DHT22;2497;47.410;9.740;2022-12-18T13:29:00;-1.10;99.90
4964;DHT22;2497;47.410;9.740;2022-12-18T13:32:03;-1.10;99.90
4964;DHT22;2497;47.410;9.740;2022-12-18T13:34:32;-1.10;99.90
4964;DHT22;2497;47.410;9.740;2022-12-18T13:39:59;-0.90;99.90
4964;DHT22;2497;47.410;9.740;2022-12-18T13:42:39;-1.00;99.90
4964;DHT22;2497;47.410;9.740;2022-12-18T13:45:44;-1.10;99.90
4964;DHT22;2497;47.410;9.740;2022-12-18T13:48:22;-1.00;99.90
4964;DHT22;2497;47.410;9.740;2022-12-18T13:50:58;-1.00;99.90
4964;DHT22;2497;47.410;9.740;2022-12-18T13:53:29;-1.20;99.90
4964;DHT22;2497;47.410;9.740;2022-12-18T13:55:57;-1.20;99.90
4964;DHT22;2497;47.410;9.740;2022-12-18T13:58:25;-1.20;99.90
4964;DHT22;2497;47.410;9.740;2022-12-18T14:00:53;-1.20;99.90
4964;DHT22;2497;47.410;9.740;2022-12-18T14:03:23;-1.20;99.90
4964;DHT22;2497;47.410;9.740;2022-12-18T14:06:00;-1.00;99.90
4964;DHT22;2497;47.410;9.740;2022-12-18T14:08:34;-0.90;99.90
4964;DHT22;2497;47.410;9.740;2022-12-18T14:11:04;-0.90;99.90
4964;DHT22;2497;47.410;9.740;2022-12-18T14:13:35;-0.90;99.90
4964;DHT22;2497;47.410;9.740;2022-12-18T14:16:04;-0.90;99.90
4964;DHT22;2497;47.410;9.740;2022-12-18T14:18:41;-1.00;99.90
4964;DHT22;2497;47.410;9.740;2022-12-18T14:21:18;-1.10;99.90
4964;DHT22;2497;47.410;9.740;2022-12-18T14:23:47;-1.20;99.90
4964;DHT22;2497;47.410;9.740;2022-12-18T14:26:23;-1.40;99.90
4964;DHT22;2497;47.410;9.740;2022-12-18T14:28:53;-1.50;99.90
4964;DHT22;2497;47.410;9.740;2022-12-18T14:31:22;-1.50;99.90
4964;DHT22;2497;47.410;9.740;2022-12-18T14:33:51;-1.40;99.90
4964;DHT22;2497;47.410;9.740;2022-12-18T14:36:22;-1.30;99.90
4964;DHT22;2497;47.410;9.740;2022-12-18T14:38:51;-1.30;99.90
4964;DHT22;2497;47.410;9.740;2022-12-18T14:41:20;-1.30;99.90
4964;DHT22;2497;47.410;9.740;2022-12-18T14:43:49;-1.30;99.90
4964;DHT22;2497;47.410;9.740;2022-12-18T14:46:29;-1.30;99.90
4964;DHT22;2497;47.410;9.740;2022-12-18T14:48:59;-1.40;99.90
4964;DHT22;2497;47.410;9.740;2022-12-18T14:51:30;-1.40;99.90
4964;DHT22;2497;47.410;9.740;2022-12-18T14:54:00;-1.50;99.90
4964;DHT22;2497;47.410;9.740;2022-12-18T14:56:30;-1.50;99.90
4964;DHT22;2497;47.410;9.740;2022-12-18T14:58:59;-1.50;99.90
4964;DHT22;2497;47.410;9.740;2022-12-18T15:01:29;-1.50;99.90
4964;DHT22;2497;47.410;9.740;2022-12-18T15:03:58;-1.60;99.90
4964;DHT22;2497;47.410;9.740;2022-12-18T15:06:33;-1.70;99.90
4964;DHT22;2497;47.410;9.740;2022-12-18T15:09:03;-1.80;99.90
4964;DHT22;2497;47.410;9.740;2022-12-18T15:11:43;-1.80;99.90
4964;DHT22;2497;47.410;9.740;2022-12-18T15:14:33;-1.70;99.90
4964;DHT22;2497;47.410;9.740;2022-12-18T15:17:05;-1.70;99.90
4964;DHT22;2497;47.410;9.740;2022-12-18T15:19:39;-1.90;99.90
4964;DHT22;2497;47.410;9.740;2022-12-18T15:22:25;-1.90;99.90
4964;DHT22;2497;47.410;9.740;2022-12-18T15:24:54;-2.00;99.90
4964;DHT22;2497;47.410;9.740;2022-12-18T15:27:31;-2.00;99.90
4964;DHT22;2497;47.410;9.740;2022-12-18T15:30:19;-2.00;99.90
4964;DHT22;2497;47.410;9.740;2022-12-18T15:32:48;-2.00;99.90
4964;DHT22;2497;47.410;9.740;2022-12-18T15:35:20;-2.00;99.90
4964;DHT22;2497;47.410;9.740;2022-12-18T15:37:51;-2.00;99.90
4964;DHT22;2497;47.410;9.740;2022-12-18T15:40:21;-2.10;99.90
4964;DHT22;2497;47.410;9.740;2022-12-18T15:42:54;-2.10;99.90
4964;DHT22;2497;47.410;9.740;2022-12-18T15:45:39;-2.10;99.90
4964;DHT22;2497;47.410;9.740;2022-12-18T15:48:20;-2.20;99.90
4964;DHT22;2497;47.410;9.740;2022-12-18T15:50:49;-2.10;99.90
4964;DHT22;2497;47.410;9.740;2022-12-18T15:53:20;-2.10;99.90
4964;DHT22;2497;47.410;9.740;2022-12-18T15:55:48;-2.20;99.90
4964;DHT22;2497;47.410;9.740;2022-12-18T15:58:33;-2.30;99.90
4964;DHT22;2497;47.410;9.740;2022-12-18T16:01:02;-2.40;99.90
4964;DHT22;2497;47.410;9.740;2022-12-18T16:03:31;-2.30;99.90
4964;DHT22;2497;47.410;9.740;2022-12-18T16:06:00;-2.30;99.90
4964;DHT22;2497;47.410;9.740;2022-12-18T16:08:29;-2.30;99.90
4964;DHT22;2497;47.410;9.740;2022-12-18T16:10:59;-2.30;99.90
4964;DHT22;2497;47.410;9.740;2022-12-18T16:13:28;-2.30;99.90
4964;DHT22;2497;47.410;9.740;2022-12-18T16:15:57;-2.30;99.90
4964;DHT22;2497;47.410;9.740;2022-12-18T16:18:25;-2.30;99.90
4964;DHT22;2497;47.410;9.740;2022-12-18T16:20:54;-2.40;99.90
4964;DHT22;2497;47.410;9.740;2022-12-18T16:23:24;-2.40;99.90
4964;DHT22;2497;47.410;9.740;2022-12-18T16:25:55;-2.40;99.90
4964;DHT22;2497;47.410;9.740;2022-12-18T16:28:23;-2.40;99.90
4964;DHT22;2497;47.410;9.740;2022-12-18T16:30:52;-2.40;99.90